Preview of NWS' New Version of Forecast
This preview is not operational and should not be used for support decisions.

Terminal Aerodrome Forecast (TAF)

Issued by National Weather Service (NWS)

                            
000
FTUS46 KMTR 180529
TAFSTS
TAF
KSTS 180529Z 1806/1906 16004KT P6SM SKC
     FM181000 VRB03KT P6SM SCT010
     FM181200 VRB03KT P6SM OVC010
     FM181900 VRB04KT P6SM SCT010
     FM182100 18010KT P6SM SKC
     FM190400 14004KT P6SM SKC=